Time;durP1;ratioP1;P1;durP2;ratioP2;P2;SDS_P1;SDS_P2;PMS_P1;PMS_P2;Temp;Humidity;BMP_temperature;BMP_pressure;BME280_temperature;BME280_humidity;BME280_pressure;Samples;Min_cycle;Max_cycle;Signal;HPM_P1;HPM_P2
2022/11/17 00:00:43;;;;;;;64.72;40.80;;;26.90;99.90;;;;;;5012791;28;20390;-63
2022/11/17 00:03:18;;;;;;;96.25;63.75;;;26.90;99.90;;;;;;5013646;28;20026;-64
2022/11/17 00:05:45;;;;;;;39.88;21.90;;;27.00;99.90;;;;;;5013347;28;20026;-62
2022/11/17 00:08:11;;;;;;;77.72;52.55;;;27.00;99.90;;;;;;5013145;28;20037;-63
2022/11/17 00:10:38;;;;;;;42.10;23.92;;;27.10;99.90;;;;;;5013344;28;20100;-61
2022/11/17 00:15:33;;;;;;;37.75;19.63;;;27.10;99.90;;;;;;5000709;28;20018;-61
2022/11/17 00:23:16;;;;;;;30.20;17.38;;;27.00;99.90;;;;;;4980932;28;20039;-63
2022/11/17 00:25:42;;;;;;;29.92;16.67;;;27.00;99.90;;;;;;4994187;28;20055;-63
2022/11/17 00:28:09;;;;;;;30.40;16.52;;;27.00;99.90;;;;;;4993912;28;20025;-64
2022/11/17 00:35:33;;;;;;;47.58;19.25;;;27.00;99.90;;;;;;4993633;28;20023;-66
2022/11/17 00:40:29;;;;;;;29.67;17.58;;;27.10;99.90;;;;;;4996994;28;20019;-65
2022/11/17 00:42:56;;;;;;;33.20;19.63;;;27.10;99.90;;;;;;4996866;28;20082;-63
2022/11/17 00:45:22;;;;;;;33.95;18.23;;;27.10;99.90;;;;;;4996867;28;20475;-63
2022/11/17 00:47:49;;;;;;;34.05;18.55;;;27.10;99.90;;;;;;4996913;28;20022;-64
2022/11/17 00:50:15;;;;;;;34.75;19.27;;;27.20;99.90;;;;;;4996603;28;20034;-64
2022/11/17 00:52:42;;;;;;;43.30;20.65;;;27.20;99.90;;;;;;4996631;28;20037;-67
2022/11/17 00:55:08;;;;;;;38.63;20.70;;;27.20;99.90;;;;;;4997047;28;20471;-66
2022/11/17 00:57:35;;;;;;;42.28;22.60;;;27.20;99.90;;;;;;4996784;28;20026;-65
2022/11/17 01:00:01;;;;;;;39.17;23.95;;;27.30;99.90;;;;;;4996449;28;20553;-65
2022/11/17 01:02:28;;;;;;;43.42;22.50;;;27.30;99.90;;;;;;4996382;28;20125;-67
2022/11/17 01:04:54;;;;;;;46.00;28.75;;;27.30;99.90;;;;;;4996124;28;20022;-66
2022/11/17 01:07:21;;;;;;;47.10;25.27;;;27.30;99.90;;;;;;4996432;28;20026;-67
2022/11/17 01:09:48;;;;;;;48.30;29.45;;;27.30;99.90;;;;;;5005678;28;20041;-66
2022/11/17 01:12:14;;;;;;;53.88;31.33;;;27.30;99.90;;;;;;4997142;28;20038;-65
2022/11/17 01:14:41;;;;;;;50.53;27.95;;;27.40;99.90;;;;;;4996164;28;20029;-66
2022/11/17 01:17:07;;;;;;;41.95;25.13;;;27.40;99.90;;;;;;5004693;28;20030;-65
2022/11/17 01:19:34;;;;;;;41.25;25.83;;;27.40;99.90;;;;;;5015796;28;20028;-70
2022/11/17 01:22:00;;;;;;;46.72;26.80;;;27.40;99.90;;;;;;5015732;28;20045;-64
2022/11/17 01:24:27;;;;;;;47.15;27.35;;;27.50;99.90;;;;;;5015808;28;20104;-63
2022/11/17 01:26:53;;;;;;;54.25;28.88;;;27.60;99.90;;;;;;5007125;28;20045;-61
2022/11/17 01:29:20;;;;;;;44.22;25.67;;;27.60;99.90;;;;;;5015691;28;20029;-60
2022/11/17 01:31:50;;;;;;;51.80;27.02;;;27.70;99.90;;;;;;5015600;28;20033;-61
2022/11/17 01:34:18;;;;;;;431.58;314.00;;;27.80;99.90;;;;;;5015590;28;20026;-61
2022/11/17 01:39:13;;;;;;;215.32;147.52;;;27.80;99.90;;;;;;5015726;28;20033;-60
2022/11/17 01:41:40;;;;;;;78.05;51.40;;;27.90;99.90;;;;;;5015352;28;20037;-60
2022/11/17 01:44:11;;;;;;;47.22;27.25;;;28.00;99.90;;;;;;5015439;28;20272;-63
2022/11/17 01:46:40;;;;;;;45.53;24.77;;;28.00;99.90;;;;;;5015061;28;20049;-61
2022/11/17 01:49:08;;;;;;;33.35;24.33;;;28.10;99.90;;;;;;5014087;28;20025;-61
2022/11/17 01:51:39;;;;;;;47.95;24.05;;;28.10;99.90;;;;;;5014875;28;20034;-62
2022/11/17 01:54:09;;;;;;;68.85;43.83;;;28.10;99.90;;;;;;5015197;28;20022;-62
2022/11/17 01:56:40;;;;;;;39.95;22.80;;;28.30;99.90;;;;;;5015301;28;20104;-63
2022/11/17 01:59:15;;;;;;;61.92;39.65;;;28.30;99.90;;;;;;5015474;28;20026;-62
2022/11/17 02:01:54;;;;;;;33.38;21.27;;;28.30;99.90;;;;;;5015128;28;20108;-62
2022/11/17 02:04:29;;;;;;;67.03;45.20;;;28.30;99.90;;;;;;5015486;28;20475;-62
2022/11/17 02:07:10;;;;;;;35.67;21.38;;;28.40;99.90;;;;;;5015316;28;20040;-61
2022/11/17 02:09:39;;;;;;;36.85;26.80;;;28.50;99.90;;;;;;5014651;28;20479;-62
2022/11/17 02:12:09;;;;;;;32.25;19.33;;;28.50;99.90;;;;;;5015198;28;20125;-62
2022/11/17 02:14:37;;;;;;;27.77;19.45;;;28.50;99.90;;;;;;5015195;28;20022;-62
2022/11/17 02:17:04;;;;;;;97.00;63.60;;;28.60;99.90;;;;;;5015097;28;20479;-62
2022/11/17 02:19:35;;;;;;;35.33;20.42;;;28.60;99.90;;;;;;5014506;28;20029;-64
2022/11/17 02:22:05;;;;;;;30.50;14.73;;;28.70;99.90;;;;;;5014597;28;20048;-64
2022/11/17 02:24:41;;;;;;;31.02;14.30;;;28.80;99.90;;;;;;5014472;28;20395;-63
2022/11/17 02:27:13;;;;;;;24.45;13.45;;;28.90;99.90;;;;;;5013949;28;20050;-64
2022/11/17 02:29:42;;;;;;;18.60;11.65;;;28.90;99.90;;;;;;5013568;28;20072;-64
2022/11/17 02:32:33;;;;;;;24.80;10.73;;;28.90;99.90;;;;;;5014384;28;20032;-64
2022/11/17 02:35:12;;;;;;;27.52;12.10;;;29.00;99.90;;;;;;4987516;28;20480;-64
2022/11/17 02:37:48;;;;;;;24.77;10.35;;;29.00;99.90;;;;;;4997288;28;20029;-64
2022/11/17 02:40:18;;;;;;;18.00;10.95;;;29.10;99.90;;;;;;5014529;28;20131;-63
2022/11/17 02:45:32;;;;;;;23.83;10.52;;;29.20;99.90;;;;;;5009664;28;20030;-63
2022/11/17 02:48:01;;;;;;;20.17;10.55;;;29.30;99.90;;;;;;4994599;28;20030;-62
2022/11/17 02:50:29;;;;;;;22.40;9.60;;;29.40;99.90;;;;;;4994755;28;20029;-70
2022/11/17 02:52:56;;;;;;;18.17;8.90;;;29.40;99.90;;;;;;4994577;28;20057;-64
2022/11/17 02:55:23;;;;;;;20.48;9.77;;;29.40;99.90;;;;;;4994127;28;20553;-64
2022/11/17 02:57:49;;;;;;;17.52;9.93;;;29.50;99.90;;;;;;4997701;28;20028;-64
2022/11/17 03:00:18;;;;;;;20.65;9.55;;;29.50;99.90;;;;;;5013637;28;20080;-64
2022/11/17 03:02:47;;;;;;;55.17;40.80;;;29.50;99.90;;;;;;5013761;28;20390;-63
2022/11/17 03:05:17;;;;;;;14.18;8.63;;;29.50;99.90;;;;;;5013732;28;20030;-63
2022/11/17 03:07:48;;;;;;;48.25;28.60;;;29.50;99.90;;;;;;5013965;28;20073;-64
2022/11/17 03:10:19;;;;;;;18.33;11.75;;;29.50;99.90;;;;;;5020702;28;20029;-63
2022/11/17 03:12:49;;;;;;;16.35;9.25;;;29.60;99.90;;;;;;5033779;28;20025;-63
2022/11/17 03:15:26;;;;;;;31.73;19.73;;;29.60;99.90;;;;;;5033714;28;20569;-64
2022/11/17 03:17:54;;;;;;;20.08;7.88;;;29.60;99.90;;;;;;5029681;28;20030;-63
2022/11/17 03:20:31;;;;;;;14.18;6.93;;;29.70;99.90;;;;;;5020155;28;20022;-62
2022/11/17 03:23:10;;;;;;;16.48;7.70;;;29.70;99.90;;;;;;5070336;23;20422;-63
2022/11/17 03:25:40;;;;;;;12.98;7.35;;;29.70;99.90;;;;;;5053281;28;20492;-63
2022/11/17 03:28:09;;;;;;;20.17;7.45;;;29.70;99.90;;;;;;5053636;28;20021;-63
2022/11/17 03:30:40;;;;;;;12.52;5.90;;;29.80;99.90;;;;;;5053376;28;20030;-63
2022/11/17 03:33:15;;;;;;;14.88;6.80;;;30.00;99.90;;;;;;5052887;28;20108;-64
2022/11/17 03:35:49;;;;;;;16.85;6.35;;;30.00;99.90;;;;;;5052909;28;20519;-62
2022/11/17 03:38:18;;;;;;;19.02;6.72;;;30.00;99.90;;;;;;5053227;28;20055;-63
2022/11/17 03:40:48;;;;;;;17.75;6.45;;;30.00;99.90;;;;;;5052855;28;20048;-64
2022/11/17 03:43:17;;;;;;;19.05;8.63;;;30.00;99.90;;;;;;5053128;28;20021;-64
2022/11/17 03:45:49;;;;;;;13.73;6.63;;;30.10;99.90;;;;;;5052799;28;20471;-64
2022/11/17 03:48:38;;;;;;;159.50;115.90;;;30.10;99.90;;;;;;5061788;28;20396;-64
2022/11/17 03:51:09;;;;;;;12.07;6.57;;;30.10;99.90;;;;;;5061569;28;20037;-63
2022/11/17 03:53:36;;;;;;;8.55;5.15;;;30.10;99.90;;;;;;5059263;28;20028;-64
2022/11/17 03:56:05;;;;;;;22.90;11.75;;;30.10;99.90;;;;;;5060748;28;20377;-63
2022/11/17 03:58:37;;;;;;;13.45;5.63;;;30.10;99.90;;;;;;5058152;28;20017;-64
2022/11/17 04:01:05;;;;;;;15.35;6.40;;;30.20;99.90;;;;;;5060813;28;20067;-63
2022/11/17 04:03:32;;;;;;;11.73;6.43;;;30.30;99.90;;;;;;5057998;28;20045;-64
2022/11/17 04:06:00;;;;;;;13.65;7.05;;;30.40;99.90;;;;;;5057993;28;20056;-64
2022/11/17 04:08:29;;;;;;;12.25;5.97;;;30.40;99.90;;;;;;5062353;28;20028;-64
2022/11/17 04:15:56;;;;;;;13.52;7.30;;;30.50;99.90;;;;;;5071007;28;20028;-64
2022/11/17 04:18:23;;;;;;;11.75;7.13;;;30.50;99.90;;;;;;5066917;28;20024;-64
2022/11/17 04:20:54;;;;;;;10.70;5.50;;;30.60;99.90;;;;;;5062061;28;20013;-63
2022/11/17 04:23:21;;;;;;;17.50;5.82;;;30.60;99.90;;;;;;5065549;28;20017;-63
2022/11/17 04:30:50;;;;;;;12.40;7.00;;;30.50;99.90;;;;;;5065488;28;20048;-63
2022/11/17 04:33:16;;;;;;;15.82;6.63;;;30.60;99.90;;;;;;5067689;28;20021;-63
2022/11/17 04:35:49;;;;;;;16.42;9.40;;;30.70;99.90;;;;;;5064744;28;20029;-63
2022/11/17 04:38:16;;;;;;;14.15;7.38;;;30.80;99.90;;;;;;5063881;28;20040;-64
2022/11/17 04:41:52;;;;;;;8.20;5.97;;;30.90;99.90;;;;;;5059095;28;20028;-64
2022/11/17 04:43:28;;;;;;;16.77;9.48;;;30.90;99.90;;;;;;5056213;28;20104;-64
2022/11/17 04:46:02;;;;;;;15.32;8.02;;;30.90;99.90;;;;;;5056715;28;20029;-63
2022/11/17 04:48:28;;;;;;;15.15;7.22;;;30.90;99.90;;;;;;5048897;28;20037;-63
2022/11/17 04:50:55;;;;;;;12.48;6.45;;;30.90;99.90;;;;;;5045386;28;20470;-66
2022/11/17 04:53:23;;;;;;;8.98;6.30;;;30.90;99.90;;;;;;5036561;28;20037;-66
2022/11/17 04:55:50;;;;;;;18.40;6.85;;;30.90;99.90;;;;;;5036837;28;20466;-66
2022/11/17 04:58:17;;;;;;;14.30;6.70;;;30.90;99.90;;;;;;5036480;28;20091;-65
2022/11/17 05:00:43;;;;;;;17.52;6.82;;;30.90;99.90;;;;;;5054185;28;20028;-66
2022/11/17 05:03:10;;;;;;;11.40;6.35;;;30.90;99.90;;;;;;5066582;28;20013;-65
2022/11/17 05:05:36;;;;;;;14.07;5.75;;;30.90;99.90;;;;;;5064731;28;20118;-66
2022/11/17 05:08:03;;;;;;;21.55;7.22;;;30.90;99.90;;;;;;5057868;28;20465;-71
2022/11/17 05:17:56;;;;;;;8.70;5.22;;;31.20;99.90;;;;;;5055706;28;20025;-69
2022/11/17 05:20:23;;;;;;;11.43;5.30;;;31.40;99.90;;;;;;5055828;28;20021;-65
2022/11/17 05:25:36;;;;;;;13.02;6.60;;;31.50;99.90;;;;;;5055219;28;20039;-67
2022/11/17 05:28:02;;;;;;;11.57;5.70;;;31.60;99.90;;;;;;5055492;28;20388;-64
2022/11/17 05:30:29;;;;;;;10.90;6.00;;;31.60;99.90;;;;;;5055690;28;20017;-69
2022/11/17 05:32:55;;;;;;;17.42;6.40;;;31.60;99.90;;;;;;5046308;28;20108;-70
2022/11/17 05:35:22;;;;;;;9.93;5.22;;;31.70;99.90;;;;;;5052311;28;20432;-67
2022/11/17 05:37:49;;;;;;;14.45;5.90;;;31.70;99.90;;;;;;5049257;28;20044;-66
2022/11/17 05:40:15;;;;;;;10.32;6.10;;;31.70;99.90;;;;;;5055413;28;20013;-65
2022/11/17 05:42:42;;;;;;;14.05;7.97;;;31.70;99.90;;;;;;5055290;28;20123;-62
2022/11/17 05:45:09;;;;;;;15.27;7.20;;;31.70;99.90;;;;;;5055370;28;20028;-64
2022/11/17 05:47:35;;;;;;;15.90;6.93;;;31.60;99.90;;;;;;5046942;28;20052;-63
2022/11/17 05:50:02;;;;;;;15.40;7.03;;;31.70;99.90;;;;;;5035260;28;20040;-64
2022/11/17 05:52:28;;;;;;;15.32;7.63;;;31.80;99.90;;;;;;5035212;28;20017;-64
2022/11/17 05:54:54;;;;;;;13.35;7.35;;;31.70;99.90;;;;;;5035504;28;20421;-65
2022/11/17 05:57:28;;;;;;;10.48;6.32;;;31.80;99.90;;;;;;5035081;28;20036;-63
2022/11/17 06:00:00;;;;;;;19.15;7.00;;;31.90;99.90;;;;;;5035273;28;20081;-64
2022/11/17 06:02:32;;;;;;;13.88;8.68;;;31.90;99.90;;;;;;5048948;28;20104;-65
2022/11/17 06:04:58;;;;;;;11.93;7.53;;;31.90;99.90;;;;;;5053912;28;20390;-63
2022/11/17 06:07:25;;;;;;;18.45;10.65;;;31.90;99.90;;;;;;5054830;28;20060;-63
2022/11/17 06:09:52;;;;;;;17.40;8.02;;;32.00;99.90;;;;;;5054869;28;20076;-63
2022/11/17 06:12:18;;;;;;;15.55;8.85;;;32.00;99.90;;;;;;5054694;28;20524;-63
2022/11/17 06:14:45;;;;;;;13.60;8.07;;;32.00;99.90;;;;;;5054776;28;20025;-63
2022/11/17 06:17:33;;;;;;;15.05;8.05;;;32.00;99.90;;;;;;5062049;28;20477;-63
2022/11/17 06:20:29;;;;;;;14.23;7.30;;;32.00;99.90;;;;;;5060537;28;20032;-63
2022/11/17 06:23:04;;;;;;;10.95;7.35;;;32.10;99.90;;;;;;5064081;28;20048;-64
2022/11/17 06:25:34;;;;;;;15.60;7.07;;;32.00;99.90;;;;;;5064425;28;20116;-66
2022/11/17 06:28:03;;;;;;;17.15;8.65;;;32.00;99.90;;;;;;5066156;28;20032;-68
2022/11/17 06:30:30;;;;;;;16.15;8.40;;;32.00;99.90;;;;;;5074629;28;20047;-62
2022/11/17 06:32:59;;;;;;;13.50;7.72;;;32.00;99.90;;;;;;5074726;28;20073;-67
2022/11/17 06:35:27;;;;;;;15.57;8.13;;;32.10;99.90;;;;;;5074230;28;20032;-65
2022/11/17 06:37:54;;;;;;;24.27;10.13;;;32.20;99.90;;;;;;5063685;28;20021;-63
2022/11/17 06:40:20;;;;;;;16.25;7.78;;;32.30;99.90;;;;;;5061441;28;20477;-66
2022/11/17 06:45:16;;;;;;;16.33;8.68;;;32.50;99.90;;;;;;5063305;28;20021;-64
2022/11/17 06:47:42;;;;;;;20.77;12.43;;;32.50;99.90;;;;;;5064725;28;20043;-64
2022/11/17 06:50:09;;;;;;;36.58;26.50;;;32.60;99.90;;;;;;5062867;28;20112;-63
2022/11/17 06:52:36;;;;;;;16.98;11.40;;;32.60;99.90;;;;;;5063044;28;20036;-64
2022/11/17 06:55:03;;;;;;;19.95;11.23;;;32.80;99.90;;;;;;5064234;28;20020;-63
2022/11/17 06:57:29;;;;;;;20.15;12.52;;;32.70;99.90;;;;;;5062598;28;20025;-64
2022/11/17 06:59:56;;;;;;;18.98;9.65;;;32.70;99.90;;;;;;5062431;28;20009;-65
2022/11/17 07:02:23;;;;;;;12.82;7.55;;;32.60;99.90;;;;;;5063975;28;20070;-64
2022/11/17 07:04:49;;;;;;;15.05;8.35;;;32.50;99.90;;;;;;5062361;28;20028;-64
2022/11/17 07:07:16;;;;;;;17.25;10.13;;;32.50;99.90;;;;;;5062491;28;20021;-63
2022/11/17 07:09:42;;;;;;;18.48;7.90;;;32.60;99.90;;;;;;5063615;28;20401;-62
2022/11/17 07:12:09;;;;;;;15.13;8.43;;;32.50;99.90;;;;;;5062010;28;20040;-67
2022/11/17 07:14:35;;;;;;;21.10;14.57;;;32.60;99.90;;;;;;5064710;28;20013;-63
2022/11/17 07:17:02;;;;;;;14.15;8.30;;;32.70;99.90;;;;;;5062965;28;20071;-61
2022/11/17 07:19:28;;;;;;;12.23;6.70;;;32.70;99.90;;;;;;5062119;28;20461;-61
2022/11/17 07:21:55;;;;;;;14.93;7.30;;;32.70;99.90;;;;;;5064275;28;20072;-62
2022/11/17 07:24:21;;;;;;;12.30;7.68;;;32.60;99.90;;;;;;5061605;28;20039;-68
2022/11/17 07:26:48;;;;;;;13.68;7.75;;;32.50;99.90;;;;;;5059193;28;20028;-61
2022/11/17 07:29:14;;;;;;;16.65;8.15;;;32.50;99.90;;;;;;5062564;28;20027;-62
2022/11/17 07:31:42;;;;;;;28.02;18.65;;;32.50;99.90;;;;;;5063503;28;20033;-63
2022/11/17 07:34:08;;;;;;;16.45;8.77;;;32.50;99.90;;;;;;5061933;28;20031;-62
2022/11/17 07:36:35;;;;;;;14.70;7.60;;;32.50;99.90;;;;;;5054948;28;20044;-65
2022/11/17 07:39:01;;;;;;;11.30;8.52;;;32.60;99.90;;;;;;5053535;28;20013;-64
2022/11/17 07:41:28;;;;;;;18.70;7.97;;;32.60;99.90;;;;;;5053321;28;20031;-64
2022/11/17 07:43:54;;;;;;;13.77;6.00;;;32.60;99.90;;;;;;5053138;28;20029;-66
2022/11/17 07:46:21;;;;;;;14.40;8.27;;;32.60;99.90;;;;;;5053766;28;20036;-64
2022/11/17 07:48:47;;;;;;;10.18;5.72;;;32.60;99.90;;;;;;5066833;22;20084;-63
2022/11/17 07:51:15;;;;;;;12.90;6.82;;;32.70;99.40;;;;;;5037474;28;20027;-65
2022/11/17 07:53:42;;;;;;;12.82;6.38;;;32.70;99.90;;;;;;5037252;28;20155;-64
2022/11/17 07:56:10;;;;;;;14.73;6.07;;;32.70;99.60;;;;;;5037327;28;20018;-64
2022/11/17 07:58:37;;;;;;;15.52;7.32;;;32.70;99.30;;;;;;5037299;28;20033;-65
2022/11/17 08:01:05;;;;;;;12.25;6.25;;;32.90;99.90;;;;;;5037322;28;20022;-64
2022/11/17 08:03:32;;;;;;;24.92;10.50;;;32.90;98.70;;;;;;5037119;28;20029;-65
2022/11/17 08:06:02;;;;;;;9.38;5.35;;;32.90;99.90;;;;;;5036916;28;20029;-64
2022/11/17 08:08:29;;;;;;;14.20;5.97;;;33.00;98.00;;;;;;5036866;28;20120;-65
2022/11/17 08:10:55;;;;;;;70.13;48.47;;;33.00;97.80;;;;;;5028787;28;20108;-64
2022/11/17 08:13:23;;;;;;;13.52;5.68;;;33.00;99.20;;;;;;5036892;28;20036;-67
2022/11/17 08:15:56;;;;;;;10.13;5.63;;;33.00;99.30;;;;;;5021037;28;20034;-67
2022/11/17 08:18:22;;;;;;;8.40;5.65;;;33.00;99.90;;;;;;5031937;28;20025;-67
2022/11/17 08:20:49;;;;;;;9.80;5.65;;;33.10;98.50;;;;;;5026194;28;20021;-65
2022/11/17 08:23:16;;;;;;;10.27;4.97;;;33.00;98.90;;;;;;5020342;28;20025;-66
2022/11/17 08:25:42;;;;;;;21.60;7.22;;;33.00;98.20;;;;;;5036872;28;20029;-66
2022/11/17 08:28:09;;;;;;;17.80;5.85;;;33.10;99.10;;;;;;5036826;28;20113;-66
2022/11/17 08:30:36;;;;;;;11.23;5.35;;;33.10;97.80;;;;;;5036846;28;20048;-67
2022/11/17 08:33:02;;;;;;;10.13;5.63;;;33.10;98.20;;;;;;5036761;28;20030;-65
2022/11/17 08:35:29;;;;;;;12.02;6.10;;;33.10;97.60;;;;;;5036527;28;20076;-69
2022/11/17 08:37:55;;;;;;;20.92;7.00;;;33.00;97.90;;;;;;5036553;28;20029;-66
2022/11/17 08:40:22;;;;;;;27.50;7.93;;;33.00;99.00;;;;;;5018959;28;20022;-64
2022/11/17 08:42:55;;;;;;;14.68;9.20;;;33.10;98.80;;;;;;5016570;28;20071;-62
2022/11/17 08:45:22;;;;;;;25.48;8.13;;;33.10;98.60;;;;;;5016722;28;20034;-62
2022/11/17 08:47:48;;;;;;;20.23;6.90;;;33.10;99.20;;;;;;5016594;28;20045;-63
2022/11/17 08:50:16;;;;;;;16.08;8.52;;;33.10;99.30;;;;;;5016475;28;20478;-63
2022/11/17 08:52:44;;;;;;;17.65;6.95;;;33.10;98.60;;;;;;5016550;28;20112;-63
2022/11/17 08:55:10;;;;;;;26.85;7.50;;;33.00;98.30;;;;;;5016423;28;20482;-63
2022/11/17 08:57:37;;;;;;;57.15;13.10;;;32.90;98.40;;;;;;5015953;28;20030;-64
2022/11/17 09:00:05;;;;;;;66.30;20.23;;;32.90;98.60;;;;;;5016309;28;20379;-64
2022/11/17 09:02:32;;;;;;;39.90;12.75;;;32.90;99.10;;;;;;5016409;28;20026;-60
2022/11/17 09:04:58;;;;;;;27.80;18.08;;;33.00;99.70;;;;;;5016242;28;20076;-61
2022/11/17 09:07:25;;;;;;;50.50;17.55;;;33.00;98.60;;;;;;5016229;28;20395;-61
2022/11/17 09:09:51;;;;;;;17.95;8.77;;;33.00;99.80;;;;;;5016352;28;20021;-63
2022/11/17 09:12:18;;;;;;;11.38;8.43;;;33.00;99.30;;;;;;5015950;28;20057;-66
2022/11/17 09:14:44;;;;;;;23.08;15.85;;;32.90;99.60;;;;;;5016078;28;20475;-65
2022/11/17 09:17:11;;;;;;;21.98;9.80;;;32.80;99.90;;;;;;5016136;28;20267;-62
2022/11/17 09:19:37;;;;;;;15.85;8.13;;;32.80;99.90;;;;;;5015885;28;20030;-61
2022/11/17 09:22:05;;;;;;;22.83;8.65;;;32.80;99.80;;;;;;5015891;28;20474;-63
2022/11/17 09:24:32;;;;;;;26.85;9.45;;;32.80;99.90;;;;;;5016188;28;20387;-62
2022/11/17 09:26:58;;;;;;;26.63;12.48;;;32.70;99.90;;;;;;5021788;28;20319;-64
2022/11/17 09:29:24;;;;;;;25.38;9.23;;;32.70;99.90;;;;;;5055641;28;20033;-63
2022/11/17 09:31:51;;;;;;;20.65;9.73;;;32.70;99.90;;;;;;5055685;28;20071;-63
2022/11/17 09:34:18;;;;;;;94.50;15.77;;;32.60;99.90;;;;;;5047449;28;20047;-63
2022/11/17 09:36:44;;;;;;;115.65;19.77;;;32.50;99.90;;;;;;5045905;28;20065;-63
2022/11/17 09:39:11;;;;;;;37.78;20.75;;;32.60;99.90;;;;;;5041273;28;20016;-63
2022/11/17 09:41:41;;;;;;;28.55;14.70;;;32.50;99.90;;;;;;5044434;28;20074;-63
2022/11/17 09:44:11;;;;;;;121.38;19.38;;;32.60;99.90;;;;;;5041218;28;21679;-64
2022/11/17 09:46:42;;;;;;;32.90;13.05;;;32.60;99.90;;;;;;5037002;28;20025;-65
2022/11/17 09:49:17;;;;;;;36.08;18.63;;;32.50;99.90;;;;;;5037783;28;20445;-64
2022/11/17 09:51:46;;;;;;;184.13;118.32;;;32.50;99.90;;;;;;5035723;28;20022;-64
2022/11/17 09:54:35;;;;;;;50.88;33.78;;;32.50;99.90;;;;;;5035330;28;20025;-67
2022/11/17 09:57:04;;;;;;;97.60;64.70;;;32.40;99.90;;;;;;5035018;28;20429;-70
2022/11/17 09:59:32;;;;;;;131.38;86.32;;;32.30;99.90;;;;;;5035390;28;20049;-67
2022/11/17 10:01:59;;;;;;;186.30;122.63;;;32.40;99.90;;;;;;5035791;28;20025;-67
2022/11/17 10:04:28;;;;;;;408.85;259.08;;;32.30;99.90;;;;;;5036256;28;20026;-71
2022/11/17 10:06:56;;;;;;;203.23;116.18;;;32.30;99.90;;;;;;5035959;28;20426;-68
2022/11/17 10:09:28;;;;;;;181.82;49.08;;;32.20;99.90;;;;;;5016371;28;20029;-75
2022/11/17 10:12:03;;;;;;;185.50;78.35;;;32.20;99.90;;;;;;5034695;28;20025;-64
2022/11/17 10:14:31;;;;;;;259.27;129.23;;;32.10;99.90;;;;;;5034628;28;20017;-65
2022/11/17 10:16:58;;;;;;;262.13;143.32;;;32.00;99.90;;;;;;5034555;28;20053;-66
2022/11/17 10:19:26;;;;;;;171.65;96.00;;;32.00;99.90;;;;;;5034654;28;20030;-64
2022/11/17 10:22:33;;;;;;;70.78;41.92;;;32.00;99.90;;;;;;5111566;27;20400;-65
2022/11/17 10:24:59;;;;;;;62.05;39.92;;;32.00;99.90;;;;;;5111050;28;20016;-65
2022/11/17 10:27:29;;;;;;;72.03;46.20;;;32.00;99.90;;;;;;5111176;28;20047;-68
2022/11/17 10:30:09;;;;;;;59.78;38.10;;;31.90;99.90;;;;;;5111148;28;20041;-64
2022/11/17 10:32:46;;;;;;;33.17;17.35;;;31.60;99.90;;;;;;5111174;28;20099;-64
2022/11/17 10:35:18;;;;;;;51.47;25.65;;;31.10;99.90;;;;;;5111153;28;20028;-64
2022/11/17 10:37:52;;;;;;;40.70;22.52;;;31.00;99.90;;;;;;5111044;28;20387;-65
2022/11/17 10:40:21;;;;;;;45.55;22.08;;;31.10;99.90;;;;;;5110883;28;20024;-64
2022/11/17 10:42:55;;;;;;;43.20;20.05;;;31.20;99.90;;;;;;5107813;28;20031;-68
2022/11/17 10:45:22;;;;;;;34.20;18.70;;;31.10;99.90;;;;;;5090949;28;20028;-65
2022/11/17 10:47:49;;;;;;;27.27;15.40;;;30.90;99.90;;;;;;5090920;28;20020;-65
2022/11/17 10:50:31;;;;;;;34.42;15.25;;;30.80;99.90;;;;;;5090633;28;20024;-69
2022/11/17 10:53:21;;;;;;;29.83;15.35;;;30.80;99.90;;;;;;5090965;28;20388;-69
2022/11/17 10:55:56;;;;;;;45.80;18.80;;;30.80;99.90;;;;;;5090706;28;20016;-67
2022/11/17 10:58:28;;;;;;;39.45;14.98;;;30.80;99.90;;;;;;5090749;28;20104;-65
2022/11/17 11:00:57;;;;;;;26.85;13.02;;;30.80;99.90;;;;;;5090694;28;20035;-66
2022/11/17 11:03:28;;;;;;;40.08;15.95;;;30.70;99.90;;;;;;5090611;28;20035;-64
2022/11/17 11:05:58;;;;;;;74.60;28.15;;;30.60;99.90;;;;;;5091030;28;20142;-70
2022/11/17 11:08:29;;;;;;;384.83;308.75;;;30.40;99.90;;;;;;5090503;28;20078;-68
2022/11/17 11:10:59;;;;;;;48.55;23.88;;;30.40;99.90;;;;;;5090174;28;20402;-66
2022/11/17 11:13:35;;;;;;;35.20;13.55;;;30.40;99.90;;;;;;5090012;28;20393;-67
2022/11/17 11:16:04;;;;;;;40.13;9.68;;;30.00;99.90;;;;;;5090217;28;20419;-65
2022/11/17 11:18:30;;;;;;;36.78;7.90;;;28.70;99.90;;;;;;5090133;28;20024;-64
2022/11/17 11:21:03;;;;;;;20.45;6.90;;;27.90;99.90;;;;;;5089822;28;20159;-65
2022/11/17 11:23:43;;;;;;;46.17;11.38;;;27.40;99.90;;;;;;5089982;28;20096;-66
2022/11/17 11:26:13;;;;;;;28.90;11.65;;;27.50;99.90;;;;;;5091235;28;20472;-65
2022/11/17 11:28:44;;;;;;;66.95;40.95;;;27.80;99.90;;;;;;5089723;28;20548;-66
2022/11/17 11:31:13;;;;;;;11.73;5.10;;;28.00;99.90;;;;;;5109796;28;20032;-67
2022/11/17 11:33:48;;;;;;;20.25;8.25;;;27.90;99.90;;;;;;5083566;28;20427;-65
2022/11/17 11:36:23;;;;;;;22.77;9.93;;;28.10;99.90;;;;;;5087902;28;20027;-65
2022/11/17 11:38:55;;;;;;;15.80;6.40;;;28.20;99.90;;;;;;5096519;28;20028;-73
2022/11/17 11:41:24;;;;;;;12.23;6.78;;;28.20;99.90;;;;;;5089160;28;20024;-65
2022/11/17 11:43:53;;;;;;;14.70;8.40;;;28.20;99.90;;;;;;5094931;28;20027;-64
2022/11/17 11:46:26;;;;;;;23.20;10.98;;;28.30;99.90;;;;;;5094920;28;20016;-64
2022/11/17 11:48:55;;;;;;;21.15;9.68;;;28.20;99.90;;;;;;5094895;28;20016;-64
2022/11/17 11:51:28;;;;;;;13.38;7.00;;;28.10;99.90;;;;;;5095168;28;20126;-66
2022/11/17 11:53:56;;;;;;;21.00;12.20;;;28.10;99.90;;;;;;5093144;28;20024;-73
2022/11/17 11:56:25;;;;;;;18.67;8.50;;;28.10;99.90;;;;;;5095566;28;20016;-67
2022/11/17 11:58:54;;;;;;;22.27;9.63;;;28.20;99.90;;;;;;5095563;28;20062;-68
2022/11/17 12:01:22;;;;;;;26.35;8.25;;;28.30;99.90;;;;;;5095153;28;20034;-71
2022/11/17 12:04:10;;;;;;;27.38;8.48;;;28.30;99.90;;;;;;5094652;28;20031;-71
2022/11/17 12:06:39;;;;;;;15.82;7.32;;;28.40;99.90;;;;;;5075245;28;20107;-68
2022/11/17 12:09:05;;;;;;;16.90;7.28;;;28.40;99.90;;;;;;5093201;28;20492;-71
2022/11/17 12:14:05;;;;;;;18.00;9.48;;;28.40;99.90;;;;;;5095216;28;20031;-69
2022/11/17 12:16:34;;;;;;;14.98;6.88;;;28.30;99.90;;;;;;5088492;28;20472;-66
2022/11/17 12:19:02;;;;;;;12.63;6.05;;;28.20;99.90;;;;;;5092290;28;20032;-61
2022/11/17 12:21:29;;;;;;;13.95;6.55;;;28.10;99.90;;;;;;5094951;28;20048;-65
2022/11/17 12:24:01;;;;;;;11.80;6.00;;;28.10;99.90;;;;;;5095288;28;20432;-64
2022/11/17 12:26:29;;;;;;;12.70;5.63;;;28.20;99.90;;;;;;5095584;28;20020;-63
2022/11/17 12:29:01;;;;;;;10.18;5.53;;;28.30;99.90;;;;;;5091443;28;20024;-63
2022/11/17 12:31:47;;;;;;;18.63;6.80;;;28.20;99.90;;;;;;5092111;28;20400;-65
2022/11/17 12:34:18;;;;;;;14.43;6.57;;;28.30;99.90;;;;;;5076042;28;20028;-64
2022/11/17 12:37:16;;;;;;;14.52;5.78;;;28.40;99.90;;;;;;5087661;28;20051;-66
2022/11/17 12:39:47;;;;;;;14.13;6.63;;;28.30;99.90;;;;;;5095154;28;20032;-65
2022/11/17 12:42:14;;;;;;;10.48;5.13;;;28.20;99.90;;;;;;5080792;28;20079;-65
2022/11/17 12:44:42;;;;;;;14.15;5.35;;;28.30;99.90;;;;;;5094069;28;20095;-66
2022/11/17 12:47:09;;;;;;;7.85;4.93;;;28.30;99.90;;;;;;5095133;28;20032;-65
2022/11/17 12:49:47;;;;;;;9.02;5.20;;;28.30;99.90;;;;;;5095036;28;20031;-65
2022/11/17 12:52:26;;;;;;;10.27;4.30;;;28.30;99.90;;;;;;5094983;28;20028;-65
2022/11/17 12:55:05;;;;;;;9.82;4.28;;;28.30;99.90;;;;;;5094691;28;20031;-65
2022/11/17 12:57:33;;;;;;;18.45;5.90;;;28.20;99.90;;;;;;5094884;28;20055;-70
2022/11/17 13:00:04;;;;;;;9.60;4.72;;;28.30;99.90;;;;;;5094988;28;20024;-70
2022/11/17 13:02:40;;;;;;;13.50;6.40;;;28.20;99.90;;;;;;5094247;28;20523;-71
2022/11/17 13:05:14;;;;;;;12.27;6.43;;;28.20;99.90;;;;;;5092645;28;20244;-72
2022/11/17 13:07:41;;;;;;;27.83;12.25;;;28.20;99.90;;;;;;5091344;28;20016;-69
2022/11/17 13:10:24;;;;;;;23.02;14.25;;;28.30;99.90;;;;;;5094192;28;20020;-69
2022/11/17 13:13:09;;;;;;;13.90;6.80;;;28.40;99.90;;;;;;5091667;28;20072;-68
2022/11/17 13:15:36;;;;;;;49.50;30.75;;;28.20;99.90;;;;;;5093042;28;20020;-70
2022/11/17 13:18:10;;;;;;;97.68;70.60;;;28.20;99.90;;;;;;5091751;28;20093;-69
2022/11/17 13:20:38;;;;;;;32.72;21.27;;;28.30;99.90;;;;;;5093314;28;20516;-71
2022/11/17 13:23:18;;;;;;;33.33;17.45;;;28.30;99.90;;;;;;5093682;28;20389;-71
2022/11/17 13:25:45;;;;;;;14.73;6.80;;;28.30;99.90;;;;;;5093989;28;20024;-71
2022/11/17 13:28:30;;;;;;;83.18;63.25;;;28.40;99.90;;;;;;5090932;28;20492;-70